• Join FlightAware (Why Join?)
  • Login
  • US Flag 
12:42PM EDT


 

Airport Tracker/Info


-or-


 

Live Flight TrackerFlight Track Log ✈ AWE3374 ✈ 20-May-2013 ✈ KDCA - KMHT

Flight Track Log - Related Links

Times and Time Zones

All times are in EDT time to prevent confusion due to time zone crossing. See the AWE3374 flight status page for this flight to view local times or setup timezone preferences in your user account.

Time Position Orientation Groundspeed Altitude Reporting Facility
EDT Latitude Longitude Course Direction KTS MPH feet Rate Location/Type
03:04PM 38.8000 -77.0333 83° East 167 192 1,900  Level Potomac TRACON
03:05PM 38.7500 -77.0000 153° Southeast 257 296 4,100 2,820 Climbing Potomac TRACON
03:06PM 39.0200 -76.5566 67° East  Level FlightAware Approximate
03:06PM 38.8000 -76.9333 46° Northeast 286 329 7,900  Level Potomac TRACON
03:07PM 39.0657 -76.4359 63° Northeast  Level FlightAware Approximate
03:08PM 39.1161 -76.3181 61° Northeast  Level FlightAware Approximate
03:08PM 38.9206 -76.9364 359° North 294 338 11,700  Level Washington Center
03:09PM 39.1522 -76.1945 83° East  Level FlightAware Approximate
03:09PM 39.0042 -76.9058 16° North 305 351 14,200  Level Washington Center
03:10PM 39.0347 -76.7833 72° East 281 323 16,600 2,280 Climbing Washington Center
03:11PM 39.0608 -76.6608 75° East 312 359 18,900 2,160 Climbing Washington Center
03:12PM 39.0869 -76.5331 75° East 341 392 20,900 1,920 Climbing Washington Center
03:13PM 39.1128 -76.3994 76° East 363 418 22,800 1,020 Climbing Washington Center
03:14PM 39.1428 -76.2553 75° East 389 448 23,000 60 Climbing Washington Center
03:15PM 39.1686 -76.0975 78° East 423 487 23,000  Level Washington Center
03:16PM 39.1858 -75.9425 82° East 441 507 23,100 600 Climbing Washington Center
03:17PM 39.2508 -75.8061 58° Northeast 441 507 24,300 1,140 Climbing Washington Center
03:18PM 39.3406 -75.6881 45° Northeast 435 501 25,400 1,020 Climbing Washington Center
03:19PM 39.4344 -75.5700 44° Northeast 445 512 26,400 960 Climbing Washington Center
03:20PM 39.5258 -75.4464 46° Northeast 457 526 27,400 780 Climbing Washington Center
03:22PM 39.7667 -75.1189 46° Northeast 495 570 29,400 780 Climbing New York Center
03:23PM 39.8611 -74.9842 48° Northeast 489 563 30,300 780 Climbing New York Center
03:24PM 39.9508 -74.8597 47° Northeast 480 552 31,000 300 Climbing New York Center
03:25PM 40.0342 -74.7453 46° Northeast 480 552 31,000  Level New York Center
03:26PM 40.1261 -74.6147 47° Northeast 480 552 31,000  Level New York Center
03:27PM 40.2156 -74.4867 48° Northeast 480 552 31,000  Level New York Center
03:28PM 40.3169 -74.3722 41° Northeast 480 552 31,000  Level New York Center
03:29PM 40.4225 -74.2578 40° Northeast 480 552 31,000  Level New York Center
03:30PM 40.5278 -74.1486 38° Northeast 480 552 31,000  Level New York Center
03:32PM 40.7614 -73.8978 39° Northeast 490 564 31,000  Level Boston Center
03:33PM 40.8769 -73.8181 28° Northeast 480 552 31,000  Level Boston Center
03:34PM 40.9944 -73.7517 23° Northeast 462 532 31,000  Level Boston Center
03:35PM 41.1114 -73.7211 24° Northeast 430 495 31,000  Level Boston Center
03:36PM 41.0935 -73.6677 24° Northeast  Level FlightAware Approximate
03:36PM 41.2300 -73.7289 357° North 424 488 31,000  Level Boston Center
03:38PM 41.3758 -73.7347 358° North 424 488 31,000  Level Boston Center
03:39PM 41.4947 -73.7400 358° North 424 488 31,000  Level Boston Center
03:40PM 41.6133 -73.7478 357° North 424 488 31,000  Level Boston Center
03:41PM 41.7342 -73.7531 358° North 424 488 31,000  Level Boston Center
03:42PM 41.8508 -73.7639 356° North 417 480 31,000  Level Boston Center
03:43PM 41.9611 -73.7664 359° North 422 486 31,000 -240 Level Boston Center
03:44PM 42.0903 -73.7744 357° North 422 486 30,500 -1,080 Descending Boston Center
03:45PM 42.2300 -73.7831 357° North 422 486 28,700 -1,740 Descending Boston Center
03:46PM 42.3508 -73.7886 358° North 422 486 27,100 -1,920 Descending Boston Center
03:47PM 42.4678 -73.7658 North 422 486 24,900 -1,560 Descending Boston Center
03:48PM 42.5358 -73.6347 55° Northeast 387 445 24,000 -600 Descending Boston Center
03:49PM 42.5644 -73.4747 76° East 383 441 23,800 -1,380 Descending Boston Center
03:50PM 42.5992 -73.3003 75° East 440 506 21,300 -2,340 Descending Boston Center
03:51PM 42.6294 -73.1569 74° East 422 486 19,200 -1,200 Descending Boston Center
03:52PM 42.6511 -73.0158 78° East 415 478 19,000 -120 Descending Boston Center
03:53PM 42.6811 -72.8411 77° East 415 478 19,000  Level Boston Center
03:54PM 42.7064 -72.6831 78° East 415 478 19,000 -840 Level Boston Center
03:55PM 42.7297 -72.5250 79° East 420 483 17,400 -1,920 Descending Boston Center
03:56PM 42.7547 -72.3722 77° East 420 483 15,200 -2,160 Descending Boston Center
03:57PM 42.7775 -72.2194 78° East 395 455 13,100 -2,040 Descending Boston Center
03:58PM 42.7958 -72.0919 79° East 351 404 11,200 -1,800 Descending Boston Center
03:59PM 42.8142 -71.9703 78° East 331 381 9,600 -1,140 Descending Boston Center
04:00PM 42.8283 -71.8569 80° East 311 358 9,000 -300 Descending Boston Center
04:01PM 42.8381 -71.7408 83° East 306 352 9,000 -360 Level Boston Center
04:02PM 42.8186 -71.6333 104° East 299 344 8,300 -1,200 Descending Boston Center
04:03PM 42.7719 -71.5378 124° Southeast 294 338 6,600 -1,620 Descending Boston Center
04:04PM 42.7647 -71.4306 95° East 279 321 5,100 -1,260 Descending Boston Center
04:05PM 42.7725 -71.3483 83° East 259 298 4,100 -1,260 Descending Boston Center
04:06PM 42.8183 -71.3589 350° North 137 158 2,600 -1,500 Descending Boston Center